createdAt,value
2022-11-13T00:01:52.882Z,70.88
2022-11-13T00:04:38.222Z,71.63
2022-11-13T00:07:23.862Z,73.30
2022-11-13T00:10:09.771Z,74.65
2022-11-13T00:12:57.718Z,73.55
2022-11-13T00:15:43.452Z,77.50
2022-11-13T00:18:30.630Z,71.82
2022-11-13T00:21:19.742Z,73.40
2022-11-13T00:24:05.745Z,67.03
2022-11-13T00:26:51.501Z,63.28
2022-11-13T00:29:37.162Z,73.53
2022-11-13T00:32:22.754Z,74.97
2022-11-13T00:35:08.957Z,76.07
2022-11-13T00:37:54.886Z,73.03
2022-11-13T00:40:42.639Z,83.70
2022-11-13T00:43:28.776Z,84.22
2022-11-13T00:46:14.424Z,78.63
2022-11-13T00:49:00.125Z,72.35
2022-11-13T00:51:45.778Z,91.32
2022-11-13T00:54:31.536Z,96.40
2022-11-13T00:57:17.487Z,105.75
2022-11-13T01:00:04.096Z,86.93
2022-11-13T01:02:49.754Z,82.20
2022-11-13T01:05:37.365Z,80.70
2022-11-13T01:08:23.283Z,77.40
2022-11-13T01:11:20.055Z,73.70
2022-11-13T01:14:05.798Z,90.80
2022-11-13T01:16:54.251Z,80.00
2022-11-13T01:19:40.228Z,81.97
2022-11-13T01:22:25.771Z,68.35
2022-11-13T01:25:11.474Z,79.68
2022-11-13T01:27:57.531Z,81.88
2022-11-13T01:30:43.349Z,104.30
2022-11-13T01:33:29.216Z,94.25
2022-11-13T01:36:20.789Z,93.65
2022-11-13T01:39:06.188Z,108.40
2022-11-13T01:41:51.812Z,95.13
2022-11-13T01:44:59.714Z,89.93
2022-11-13T01:47:45.708Z,107.60
2022-11-13T01:50:31.325Z,88.88
2022-11-13T01:53:17.225Z,82.05
2022-11-13T01:56:03.010Z,93.82
2022-11-13T01:58:54.739Z,98.30
2022-11-13T02:01:40.199Z,92.90
2022-11-13T02:04:28.516Z,90.80
2022-11-13T02:07:16.588Z,120.68
2022-11-13T02:10:02.563Z,106.10
2022-11-13T02:12:52.675Z,110.78
2022-11-13T02:15:39.997Z,86.38
2022-11-13T02:18:27.520Z,110.07
2022-11-13T02:21:33.227Z,78.38
2022-11-13T02:24:37.665Z,91.60
2022-11-13T02:27:29.885Z,81.25
2022-11-13T02:30:30.446Z,72.22
2022-11-13T02:33:33.403Z,105.05
2022-11-13T02:36:22.472Z,106.13
2022-11-13T02:39:11.074Z,106.03
2022-11-13T02:41:56.668Z,111.63
2022-11-13T02:44:42.274Z,114.20
2022-11-13T02:47:28.739Z,110.80
2022-11-13T02:50:14.744Z,91.35
2022-11-13T02:53:00.716Z,85.53
2022-11-13T02:55:46.653Z,89.45
2022-11-13T02:58:32.419Z,97.82
2022-11-13T03:01:18.566Z,82.53
2022-11-13T03:04:04.101Z,79.07
2022-11-13T03:06:49.788Z,74.03
2022-11-13T03:09:35.291Z,90.32
2022-11-13T03:12:20.885Z,80.97
2022-11-13T03:15:08.249Z,119.05
2022-11-13T03:17:54.194Z,109.10
2022-11-13T03:20:41.822Z,82.28
2022-11-13T03:23:28.234Z,77.80
2022-11-13T03:26:16.691Z,79.93
2022-11-13T03:29:02.201Z,89.85
2022-11-13T03:31:47.848Z,81.07
2022-11-13T03:34:33.597Z,81.68
2022-11-13T03:37:19.209Z,71.60
2022-11-13T03:40:05.803Z,85.45
2022-11-13T03:42:51.458Z,77.90
2022-11-13T03:45:37.291Z,78.53
2022-11-13T03:48:23.389Z,72.47
2022-11-13T03:51:09.283Z,83.60
2022-11-13T03:53:54.880Z,77.00
2022-11-13T03:56:41.102Z,75.32
2022-11-13T03:59:26.687Z,77.55
2022-11-13T04:02:12.310Z,77.68
2022-11-13T04:04:57.930Z,79.55
2022-11-13T04:07:43.583Z,71.70
2022-11-13T04:10:29.713Z,72.53
2022-11-13T04:13:15.272Z,80.38
2022-11-13T04:16:00.892Z,68.30
2022-11-13T04:18:46.468Z,69.30
2022-11-13T04:21:31.891Z,61.72
2022-11-13T04:24:17.636Z,73.68
2022-11-13T04:27:03.195Z,69.43
2022-11-13T04:29:49.001Z,71.35
2022-11-13T04:32:34.542Z,89.70
2022-11-13T04:35:20.317Z,80.20
2022-11-13T04:38:05.945Z,88.18
2022-11-13T04:41:12.142Z,100.30
2022-11-13T04:43:57.717Z,80.88
2022-11-13T04:46:43.547Z,78.75
2022-11-13T04:49:29.175Z,77.90
2022-11-13T04:52:15.009Z,82.15
2022-11-13T04:55:00.448Z,67.05
2022-11-13T04:57:45.966Z,64.45
2022-11-13T05:00:31.580Z,87.47
2022-11-13T05:03:17.205Z,77.97
2022-11-13T05:06:07.737Z,62.75
2022-11-13T05:08:53.391Z,67.40
2022-11-13T05:11:39.186Z,66.85
2022-11-13T05:14:24.835Z,59.88
2022-11-13T05:17:12.590Z,69.70
2022-11-13T05:19:58.400Z,59.40
2022-11-13T05:22:44.002Z,72.32
2022-11-13T05:25:31.202Z,61.35
2022-11-13T05:28:17.197Z,62.35
2022-11-13T05:31:07.605Z,64.22
2022-11-13T05:33:53.502Z,74.22
2022-11-13T05:36:39.427Z,58.95
2022-11-13T05:39:24.900Z,61.95
2022-11-13T05:42:10.637Z,51.65
2022-11-13T05:44:56.320Z,48.55
2022-11-13T05:47:42.019Z,50.75
2022-11-13T05:50:27.739Z,59.42
2022-11-13T05:53:13.357Z,65.60
2022-11-13T05:56:06.925Z,57.88
2022-11-13T05:58:54.179Z,59.67
2022-11-13T06:01:40.795Z,50.33
2022-11-13T06:04:26.828Z,47.10
2022-11-13T06:07:12.567Z,52.05
2022-11-13T06:09:58.209Z,46.83
2022-11-13T06:12:43.755Z,45.45
2022-11-13T06:15:29.432Z,52.08
2022-11-13T06:18:14.897Z,57.75
2022-11-13T06:21:10.653Z,82.18
2022-11-13T06:23:58.003Z,59.38
2022-11-13T06:26:43.845Z,91.20
2022-11-13T06:29:29.496Z,71.35
2022-11-13T06:32:15.070Z,66.60
2022-11-13T06:35:00.622Z,91.63
2022-11-13T06:37:46.495Z,83.47
2022-11-13T06:40:32.102Z,66.10
2022-11-13T06:43:17.662Z,87.75
2022-11-13T06:46:10.179Z,67.90
2022-11-13T06:48:56.387Z,64.28
2022-11-13T06:51:41.776Z,61.58
2022-11-13T06:54:27.415Z,66.90
2022-11-13T06:57:12.894Z,58.22
2022-11-13T06:59:58.586Z,68.32
2022-11-13T07:02:43.997Z,60.13
2022-11-13T07:05:29.900Z,55.67
2022-11-13T07:08:16.178Z,133.45
2022-11-13T07:11:02.180Z,97.50
2022-11-13T07:13:49.858Z,159.20
2022-11-13T07:17:04.342Z,160.15
2022-11-13T07:19:41.362Z,95.30
2022-11-13T07:22:30.032Z,98.32
2022-11-13T07:25:15.594Z,135.00
2022-11-13T07:28:01.598Z,195.18
2022-11-13T07:30:47.026Z,260.50
2022-11-13T07:33:32.734Z,222.73
2022-11-13T07:36:18.689Z,153.07
2022-11-13T07:39:04.678Z,136.77
2022-11-13T07:41:50.171Z,93.13
2022-11-13T07:45:01.336Z,73.47
2022-11-13T07:47:41.505Z,92.30
2022-11-13T07:50:29.205Z,69.07
2022-11-13T07:53:19.081Z,56.53
2022-11-13T07:56:05.361Z,53.13
2022-11-13T07:58:50.991Z,39.30
2022-11-13T08:01:36.731Z,34.15
2022-11-13T08:04:22.310Z,33.63
2022-11-13T08:07:10.892Z,34.67
2022-11-13T08:09:56.705Z,37.40
2022-11-13T08:12:42.736Z,42.03
2022-11-13T08:15:29.060Z,81.60
2022-11-13T08:18:14.647Z,48.13
2022-11-13T08:21:07.026Z,52.60
2022-11-13T08:23:55.105Z,46.88
2022-11-13T08:26:40.699Z,45.65
2022-11-13T08:29:26.427Z,41.17
2022-11-13T08:32:15.641Z,46.22
2022-11-13T08:35:01.599Z,138.68
2022-11-13T08:37:49.335Z,79.90
2022-11-13T08:40:36.015Z,48.58
2022-11-13T08:43:21.381Z,70.18
2022-11-13T08:46:07.078Z,35.22
2022-11-13T08:48:53.100Z,45.40
2022-11-13T08:51:39.057Z,49.92
2022-11-13T08:54:25.197Z,50.45
2022-11-13T08:57:11.142Z,38.83
2022-11-13T08:59:56.697Z,36.72
2022-11-13T09:02:46.993Z,26.95
2022-11-13T09:05:32.453Z,31.85
2022-11-13T09:08:18.272Z,28.73
2022-11-13T09:11:05.235Z,26.23
2022-11-13T09:13:53.453Z,36.83
2022-11-13T09:16:39.143Z,43.35
2022-11-13T09:19:25.283Z,38.70
2022-11-13T09:22:12.332Z,52.65
2022-11-13T09:24:57.842Z,54.80
2022-11-13T09:27:43.642Z,57.83
2022-11-13T09:30:32.582Z,45.95
2022-11-13T09:33:20.446Z,47.55
2022-11-13T09:36:14.285Z,41.90
2022-11-13T09:39:01.082Z,58.45
2022-11-13T09:41:52.265Z,143.07
2022-11-13T09:45:11.563Z,47.13
2022-11-13T09:48:10.266Z,38.65
2022-11-13T09:50:56.494Z,36.53
2022-11-13T09:53:43.723Z,32.35
2022-11-13T09:56:40.771Z,29.58
2022-11-13T09:59:32.753Z,30.50
2022-11-13T10:02:48.683Z,32.78
2022-11-13T10:05:56.803Z,29.45
2022-11-13T10:09:19.457Z,28.00
2022-11-13T10:12:08.534Z,28.75
2022-11-13T10:14:57.296Z,27.92
2022-11-13T10:18:15.557Z,42.33
2022-11-13T10:21:24.312Z,24.20
2022-11-13T10:24:25.972Z,29.55
2022-11-13T10:27:13.826Z,27.52
2022-11-13T10:33:08.319Z,19.48
2022-11-13T10:36:38.789Z,22.65
2022-11-13T10:39:24.649Z,21.83
2022-11-13T10:42:37.447Z,23.67
2022-11-13T10:45:23.286Z,19.73
2022-11-13T10:48:27.430Z,18.42
2022-11-13T10:51:29.927Z,21.63
2022-11-13T10:54:25.401Z,18.48
2022-11-13T10:57:35.489Z,21.70
2022-11-13T11:00:25.712Z,21.95
2022-11-13T11:03:21.535Z,17.75
2022-11-13T11:06:07.521Z,15.48
2022-11-13T11:08:52.872Z,18.08
2022-11-13T11:11:58.042Z,61.90
2022-11-13T11:14:54.674Z,23.85
2022-11-13T11:17:44.441Z,16.23
2022-11-13T11:20:55.279Z,15.43
2022-11-13T11:23:56.518Z,13.15
2022-11-13T11:26:51.005Z,15.88
2022-11-13T11:29:46.708Z,20.50
2022-11-13T11:33:07.715Z,31.80
2022-11-13T11:36:19.386Z,22.60
2022-11-13T11:39:19.766Z,40.05
2022-11-13T11:42:30.540Z,17.65
2022-11-13T11:45:34.069Z,15.32
2022-11-13T11:48:46.263Z,14.27
2022-11-13T11:51:39.120Z,13.52
2022-11-13T11:54:43.814Z,23.50
2022-11-13T11:57:51.267Z,21.42
2022-11-13T12:00:42.302Z,27.08
2022-11-13T12:03:57.676Z,22.52
2022-11-13T12:07:05.006Z,28.73
2022-11-13T12:10:04.384Z,29.08
2022-11-13T12:13:19.046Z,35.10
2022-11-13T12:16:25.363Z,44.50
2022-11-13T12:19:27.159Z,33.47
2022-11-13T12:22:16.271Z,35.65
2022-11-13T12:25:18.879Z,27.52
2022-11-13T12:28:33.485Z,29.83
2022-11-13T12:31:39.204Z,32.25
2022-11-13T12:34:41.985Z,51.58
2022-11-13T12:37:51.313Z,30.10
2022-11-13T12:40:53.191Z,75.28
2022-11-13T12:44:07.614Z,50.95
2022-11-13T12:46:54.454Z,29.42
2022-11-13T12:49:40.217Z,26.60
2022-11-13T12:52:25.844Z,74.35
2022-11-13T12:55:30.721Z,48.42
2022-11-13T12:58:24.674Z,45.08
2022-11-13T13:01:10.364Z,56.33
2022-11-13T13:04:30.551Z,47.97
2022-11-13T13:07:34.501Z,116.43
2022-11-13T13:10:21.833Z,65.38
2022-11-13T13:13:56.072Z,34.03
2022-11-13T13:16:41.649Z,36.33
2022-11-13T13:19:32.117Z,53.38
2022-11-13T13:22:30.667Z,49.38
2022-11-13T13:25:27.241Z,36.13
2022-11-13T13:28:23.053Z,103.75
2022-11-13T13:31:21.313Z,43.53
2022-11-13T13:34:35.355Z,54.78
2022-11-13T13:37:59.666Z,47.33
2022-11-13T13:40:59.811Z,60.50
2022-11-13T13:43:56.763Z,38.88
2022-11-13T13:46:42.799Z,37.38
2022-11-13T13:49:29.500Z,36.00
2022-11-13T13:52:16.053Z,34.10
2022-11-13T13:55:04.639Z,32.58
2022-11-13T13:57:50.349Z,26.88
2022-11-13T14:00:44.691Z,37.25
2022-11-13T14:03:39.197Z,33.45
2022-11-13T14:06:24.898Z,27.23
2022-11-13T14:09:16.149Z,20.75
2022-11-13T14:12:21.473Z,20.42
2022-11-13T14:15:44.566Z,36.65
2022-11-13T14:18:31.365Z,108.53
2022-11-13T14:21:22.211Z,58.83
2022-11-13T14:24:33.793Z,38.22
2022-11-13T14:27:24.965Z,65.95
2022-11-13T14:30:26.700Z,44.78
2022-11-13T14:33:21.793Z,47.00
2022-11-13T14:36:07.890Z,40.75
2022-11-13T14:38:54.017Z,39.80
2022-11-13T14:41:59.901Z,47.75
2022-11-13T14:44:45.470Z,24.67
2022-11-13T14:47:37.441Z,22.27
2022-11-13T14:50:24.832Z,50.10
2022-11-13T14:53:11.698Z,30.38
2022-11-13T14:56:01.455Z,28.52
2022-11-13T14:58:47.810Z,36.95
2022-11-13T15:01:33.379Z,75.07
2022-11-13T15:04:19.118Z,34.50
2022-11-13T15:07:29.300Z,24.15
2022-11-13T15:10:18.708Z,18.88
2022-11-13T15:13:14.552Z,16.85
2022-11-13T15:18:49.544Z,16.03
2022-11-13T15:21:35.692Z,14.98
2022-11-13T15:24:21.391Z,32.97
2022-11-13T15:27:11.670Z,40.85
2022-11-13T15:29:57.408Z,50.25
2022-11-13T15:32:46.266Z,80.72
2022-11-13T15:35:31.768Z,91.45
2022-11-13T15:38:18.108Z,137.40
2022-11-13T15:41:13.223Z,62.08
2022-11-13T15:44:00.109Z,96.60
2022-11-13T15:46:45.905Z,255.75
2022-11-13T15:49:31.869Z,67.53
2022-11-13T15:52:17.819Z,88.97
2022-11-13T15:55:06.764Z,78.65
2022-11-13T15:57:52.398Z,88.32
2022-11-13T16:00:42.998Z,111.03
2022-11-13T16:03:28.904Z,118.80
2022-11-13T16:06:22.389Z,54.20
2022-11-13T16:09:13.754Z,59.00
2022-11-13T16:12:01.563Z,51.53
2022-11-13T16:14:46.913Z,60.53
2022-11-13T16:17:38.859Z,47.20
2022-11-13T16:20:24.389Z,37.88
2022-11-13T16:23:18.864Z,30.35
2022-11-13T16:26:04.947Z,24.95
2022-11-13T16:29:12.830Z,29.63
2022-11-13T16:31:59.046Z,41.08
2022-11-13T16:34:46.249Z,42.30
2022-11-13T16:37:32.303Z,41.30
2022-11-13T16:40:24.337Z,45.38
2022-11-13T16:43:11.110Z,59.35
2022-11-13T16:45:59.929Z,54.17
2022-11-13T16:48:45.744Z,47.28
2022-11-13T16:51:31.504Z,40.47
2022-11-13T16:54:17.270Z,50.88
2022-11-13T16:57:02.949Z,49.15
2022-11-13T16:59:48.526Z,45.70
2022-11-13T17:02:34.365Z,54.88
2022-11-13T17:05:21.956Z,68.57
2022-11-13T17:08:11.990Z,51.33
2022-11-13T17:10:58.496Z,45.25
2022-11-13T17:13:48.911Z,53.88
2022-11-13T17:16:34.191Z,59.28
2022-11-13T17:19:20.356Z,67.40
2022-11-13T17:22:06.097Z,69.60
2022-11-13T17:24:52.301Z,78.55
2022-11-13T17:27:37.974Z,70.78
2022-11-13T17:30:23.924Z,69.65
2022-11-13T17:33:09.476Z,69.32
2022-11-13T17:35:57.928Z,74.10
2022-11-13T17:38:43.584Z,73.40
2022-11-13T17:41:29.229Z,80.38
2022-11-13T17:44:15.050Z,73.93
2022-11-13T17:47:00.707Z,64.18
2022-11-13T17:49:46.370Z,61.80
2022-11-13T17:52:32.019Z,72.35
2022-11-13T17:55:17.728Z,44.10
2022-11-13T17:58:03.467Z,93.13
2022-11-13T18:00:49.508Z,57.10
2022-11-13T18:03:35.513Z,103.40
2022-11-13T18:06:21.357Z,119.20
2022-11-13T18:09:07.632Z,57.85
2022-11-13T18:11:53.452Z,58.08
2022-11-13T18:14:39.225Z,135.70
2022-11-13T18:17:24.957Z,94.18
2022-11-13T18:20:11.585Z,63.95
2022-11-13T18:22:57.394Z,55.33
2022-11-13T18:25:43.497Z,56.75
2022-11-13T18:28:28.940Z,70.47
2022-11-13T18:31:17.763Z,49.65
2022-11-13T18:34:05.722Z,52.47
2022-11-13T18:36:52.072Z,55.25
2022-11-13T18:39:40.018Z,49.95
2022-11-13T18:42:25.874Z,53.70
2022-11-13T18:45:11.875Z,60.60
2022-11-13T18:47:57.759Z,54.85
2022-11-13T18:50:54.274Z,63.97
2022-11-13T18:53:40.485Z,64.75
2022-11-13T18:56:31.664Z,62.33
2022-11-13T18:59:17.592Z,73.07
2022-11-13T19:02:03.399Z,107.30
2022-11-13T19:04:49.654Z,82.18
2022-11-13T19:07:35.054Z,66.05
2022-11-13T19:10:20.552Z,50.38
2022-11-13T19:13:07.386Z,51.80
2022-11-13T19:15:53.643Z,54.22
2022-11-13T19:18:41.335Z,52.22
2022-11-13T19:21:30.314Z,49.15
2022-11-13T19:24:16.585Z,47.05
2022-11-13T19:27:03.123Z,44.22
2022-11-13T19:29:48.693Z,50.55
2022-11-13T19:32:36.227Z,54.72
2022-11-13T19:35:26.084Z,57.65
2022-11-13T19:38:11.849Z,59.47
2022-11-13T19:40:57.481Z,58.20
2022-11-13T19:43:45.057Z,50.50
2022-11-13T19:46:32.115Z,66.47
2022-11-13T19:49:18.281Z,81.93
2022-11-13T19:52:04.302Z,100.70
2022-11-13T19:54:50.160Z,83.28
2022-11-13T19:57:35.933Z,83.63
2022-11-13T20:00:23.911Z,115.05
2022-11-13T20:03:11.387Z,102.93
2022-11-13T20:06:01.083Z,88.82
2022-11-13T20:08:46.787Z,110.32
2022-11-13T20:11:32.916Z,89.50
2022-11-13T20:14:18.540Z,83.55
2022-11-13T20:17:04.472Z,71.93
2022-11-13T20:19:50.096Z,63.25
2022-11-13T20:22:35.908Z,80.47
2022-11-13T20:25:21.477Z,107.80
2022-11-13T20:28:07.420Z,97.45
2022-11-13T20:31:03.085Z,93.82
2022-11-13T20:33:54.275Z,85.82
2022-11-13T20:36:39.819Z,81.25
2022-11-13T20:39:26.152Z,68.97
2022-11-13T20:42:11.617Z,65.30
2022-11-13T20:45:00.925Z,64.35
2022-11-13T20:47:46.969Z,60.55
2022-11-13T20:50:35.843Z,63.00
2022-11-13T20:53:21.220Z,76.43
2022-11-13T20:56:08.414Z,93.25
2022-11-13T20:58:58.137Z,84.30
2022-11-13T21:01:44.596Z,93.50
2022-11-13T21:04:30.288Z,77.43
2022-11-13T21:07:16.347Z,77.90
2022-11-13T21:10:02.239Z,59.58
2022-11-13T21:12:48.015Z,59.10
2022-11-13T21:15:33.972Z,57.22
2022-11-13T21:18:20.759Z,76.38
2022-11-13T21:21:20.944Z,65.90
2022-11-13T21:24:07.601Z,66.07
2022-11-13T21:26:53.202Z,63.65
2022-11-13T21:29:38.800Z,62.78
2022-11-13T21:32:24.506Z,86.28
2022-11-13T21:35:12.384Z,78.18
2022-11-13T21:38:03.825Z,68.28
2022-11-13T21:41:18.720Z,71.25
2022-11-13T21:44:08.462Z,72.03
2022-11-13T21:46:54.616Z,72.63
2022-11-13T21:49:40.435Z,75.95
2022-11-13T21:52:26.168Z,67.72
2022-11-13T21:55:11.792Z,68.43
2022-11-13T21:57:57.968Z,76.60
2022-11-13T22:00:44.403Z,70.32
2022-11-13T22:03:30.302Z,70.43
2022-11-13T22:06:17.248Z,69.32
2022-11-13T22:09:12.514Z,86.38
2022-11-13T22:11:58.244Z,74.47
2022-11-13T22:14:44.328Z,88.20
2022-11-13T22:17:29.957Z,70.20
2022-11-13T22:20:15.924Z,71.20
2022-11-13T22:23:01.447Z,81.60
2022-11-13T22:25:46.981Z,68.88
2022-11-13T22:28:34.170Z,67.80
2022-11-13T22:31:31.485Z,72.47
2022-11-13T22:34:16.955Z,70.97
2022-11-13T22:37:02.481Z,72.32
2022-11-13T22:39:48.134Z,94.47
2022-11-13T22:42:33.734Z,71.53
2022-11-13T22:45:23.576Z,71.65
2022-11-13T22:48:11.106Z,83.45
2022-11-13T22:50:56.846Z,71.55
2022-11-13T22:53:47.678Z,75.10
2022-11-13T22:56:34.722Z,82.88
2022-11-13T22:59:20.441Z,70.47
2022-11-13T23:02:06.105Z,76.22
2022-11-13T23:04:52.229Z,71.40
2022-11-13T23:07:37.829Z,63.63
2022-11-13T23:10:25.417Z,65.22
2022-11-13T23:13:11.273Z,60.72
2022-11-13T23:15:57.051Z,69.43
2022-11-13T23:18:42.674Z,63.08
2022-11-13T23:21:29.848Z,76.68
2022-11-13T23:24:15.425Z,67.72
2022-11-13T23:27:01.507Z,65.20
2022-11-13T23:29:50.123Z,76.90
2022-11-13T23:32:36.193Z,70.70
2022-11-13T23:35:21.791Z,54.63
2022-11-13T23:38:07.546Z,82.00
2022-11-13T23:40:54.980Z,69.90
2022-11-13T23:44:07.688Z,75.78
2022-11-13T23:46:46.692Z,58.08
2022-11-13T23:49:32.557Z,62.50
2022-11-13T23:52:18.379Z,53.60
2022-11-13T23:55:04.774Z,56.28
2022-11-13T23:58:00.905Z,59.65
